Metar z pełnej godziny Komunikat METAR ze strony awiacja.imgw.pl Metar G00 EPKK METAR EPKK 240500Z 03003KT 3000 BR SCT050 M04/M05 Q1026 =